Time;durP1;ratioP1;P1;durP2;ratioP2;P2;SDS_P1;SDS_P2;PMS_P1;PMS_P2;Temp;Humidity;BMP_temperature;BMP_pressure;BME280_temperature;BME280_humidity;BME280_pressure;Samples;Min_cycle;Max_cycle;Signal;HPM_P1;HPM_P2
2022/06/20 00:03:06;;;;;;;6.28;1.80;;;;;;;24.51;43.92;99267.09;1700969;109;25993;-81
2022/06/20 00:11:01;;;;;;;5.90;1.90;;;;;;;24.66;43.61;99281.41;1695366;111;26014;-80
2022/06/20 00:14:34;;;;;;;2.98;1.47;;;;;;;24.66;43.66;99281.41;1728536;109;25834;-82
2022/06/20 00:21:42;;;;;;;9.25;2.17;;;;;;;24.61;43.82;99266.14;1835482;105;25800;-80
2022/06/20 00:25:16;;;;;;;3.67;1.67;;;;;;;24.54;43.66;99247.42;1840962;105;25879;-81
2022/06/20 00:29:04;;;;;;;4.05;2.08;;;;;;;24.45;43.81;99242.09;1780216;109;25950;-83
2022/06/20 00:32:43;;;;;;;6.17;1.65;;;;;;;24.42;43.97;99231.11;1779734;109;26300;-81
2022/06/20 00:36:09;;;;;;;6.40;1.85;;;;;;;24.30;44.02;99229.06;1763727;110;25868;-80
2022/06/20 00:39:33;;;;;;;9.28;1.90;;;;;;;24.16;44.20;99212.43;1741109;113;25853;-82
2022/06/20 00:43:06;;;;;;;9.38;2.08;;;;;;;24.06;44.41;99201.86;1740934;111;26525;-80
2022/06/20 00:47:13;;;;;;;4.58;1.87;;;;;;;24.04;44.61;99194.44;1771373;109;25947;-82
2022/06/20 00:50:48;;;;;;;10.38;1.90;;;;;;;24.01;44.70;99218.55;1841034;105;25926;-82
2022/06/20 00:55:17;;;;;;;12.70;1.60;;;;;;;24.04;44.69;99207.75;1882600;101;25760;-81
2022/06/20 00:59:16;;;;;;;8.43;2.08;;;;;;;23.90;44.79;99198.27;1901603;102;26049;-82
2022/06/20 01:07:26;;;;;;;;;;;;;;;;;;;;;
2022/06/20 01:11:26;;;;;;;12.95;1.82;;;;;;;24.05;45.96;99270.70;1854823;102;25892;-82
2022/06/20 01:15:14;;;;;;;3.65;1.75;;;;;;;24.21;46.42;99289.45;1873490;101;25931;-82
2022/06/20 01:19:06;;;;;;;10.78;1.95;;;;;;;24.31;46.27;99300.03;1842045;105;26140;-80
2022/06/20 01:23:23;;;;;;;10.13;1.92;;;;;;;24.36;46.58;99284.66;1841172;106;25832;-82
2022/06/20 01:27:35;;;;;;;9.63;2.05;;;;;;;24.34;45.76;99298.55;1850664;105;25914;-80
2022/06/20 01:31:10;;;;;;;8.78;1.95;;;;;;;24.29;45.78;99292.57;1864470;104;25912;-82
2022/06/20 01:34:40;;;;;;;7.30;1.87;;;;;;;24.26;46.11;99305.56;1882869;103;25861;-80
2022/06/20 01:38:36;;;;;;;5.75;1.95;;;;;;;24.28;45.68;99287.72;1814885;106;25913;-82
2022/06/20 01:42:42;;;;;;;6.72;1.87;;;;;;;24.27;45.63;99279.34;1823521;106;25955;-82
2022/06/20 01:46:33;;;;;;;9.70;2.12;;;;;;;24.21;45.62;99293.44;1839633;105;25872;-81
2022/06/20 01:50:29;;;;;;;2.37;1.92;;;;;;;24.10;45.42;99284.66;1841103;104;25912;-82
2022/06/20 01:54:41;;;;;;;10.13;4.20;;;;;;;24.07;46.26;99287.95;1866789;104;26270;-82
2022/06/20 01:58:55;;;;;;;8.88;2.70;;;;;;;24.10;46.44;99300.64;1871571;104;25816;-81
2022/06/20 02:03:12;;;;;;;11.78;1.98;;;;;;;24.12;46.58;99300.07;1884944;101;25697;-81
2022/06/20 02:06:49;;;;;;;5.92;1.95;;;;;;;24.10;46.24;99298.41;1942096;100;25864;-81
2022/06/20 02:10:41;;;;;;;6.95;1.87;;;;;;;24.11;46.50;99302.83;1919569;100;25920;-82
2022/06/20 02:14:32;;;;;;;5.70;1.70;;;;;;;24.10;46.95;99302.41;1891196;99;25888;-81
2022/06/20 02:18:07;;;;;;;2.30;1.90;;;;;;;24.11;46.51;99297.50;1945352;99;25817;-81
2022/06/20 02:21:45;;;;;;;8.65;2.45;;;;;;;24.15;46.60;99320.36;1893164;103;25855;-81
2022/06/20 02:25:34;;;;;;;13.13;3.15;;;;;;;24.18;46.45;99326.41;1902629;101;25869;-81
2022/06/20 02:29:37;;;;;;;3.45;2.00;;;;;;;24.16;46.48;99328.73;1881399;103;26049;-81
2022/06/20 02:33:43;;;;;;;;;;;;;;;;;;;;;
2022/06/20 02:37:40;;;;;;;5.42;2.47;;;;;;;24.03;46.76;99312.52;1884306;102;25923;-81
2022/06/20 02:41:17;;;;;;;8.65;3.33;;;;;;;23.91;46.98;99319.29;1824634;105;25898;-81
2022/06/20 02:45:25;;;;;;;9.45;2.90;;;;;;;23.79;47.36;99323.86;1820055;107;25855;-82
2022/06/20 02:49:16;;;;;;;7.05;2.67;;;;;;;23.70;47.61;99319.00;1821901;106;45322;-83
2022/06/20 02:53:23;;;;;;;3.90;2.42;;;;;;;23.69;48.09;99339.86;1801088;108;25965;-81
2022/06/20 02:57:05;;;;;;;4.60;2.45;;;;;;;23.75;48.10;99344.91;1776310;109;26227;-82
2022/06/20 03:01:00;;;;;;;8.95;2.12;;;;;;;23.77;48.35;99345.70;1767815;109;26010;-82
2022/06/20 03:04:47;;;;;;;6.60;2.17;;;;;;;23.78;48.43;99359.40;1752773;111;25904;-80
2022/06/20 03:12:41;;;;;;;;;;;;;;;;;;;;;
2022/06/20 03:20:43;;;;;;;11.25;2.40;;;;;;;23.99;48.83;99361.51;1779887;108;26698;-80
2022/06/20 03:24:48;;;;;;;;;;;;;;;;;;;;;
2022/06/20 03:28:59;;;;;;;12.20;2.20;;;;;;;24.08;49.10;99376.19;1780412;109;26002;-81
2022/06/20 03:32:45;;;;;;;10.70;2.90;;;;;;;24.11;49.34;99386.22;1857780;103;25885;-82
2022/06/20 03:36:21;;;;;;;12.13;2.02;;;;;;;24.15;49.49;99376.28;1858538;103;25550;-83
2022/06/20 03:40:07;;;;;;;13.03;2.47;;;;;;;24.06;49.60;99373.59;1863234;104;26012;-82
2022/06/20 03:43:38;;;;;;;8.10;2.45;;;;;;;24.10;49.81;99381.84;1896516;103;25850;-83
2022/06/20 03:51:53;;;;;;;9.80;2.20;;;;;;;24.03;50.23;99377.75;1828344;103;25924;-82
2022/06/20 03:56:23;;;;;;;8.90;2.00;;;;;;;24.08;50.32;99388.17;1835618;106;25840;-82
2022/06/20 04:00:34;;;;;;;19.42;2.42;;;;;;;24.21;50.21;99387.50;1834225;106;26022;-80
2022/06/20 04:14:52;;;;;;;12.00;2.05;;;;;;;24.34;50.24;99413.56;1841762;105;25897;-81
2022/06/20 04:18:49;;;;;;;6.15;1.92;;;;;;;24.34;50.38;99429.07;1750839;107;25833;-82
2022/06/20 04:22:50;;;;;;;12.40;2.25;;;;;;;24.36;50.39;99424.98;1750889;111;26021;-83
2022/06/20 04:26:47;;;;;;;;;;;;;;;;;;;;;
2022/06/20 04:34:55;;;;;;;12.63;2.12;;;;;;;24.40;50.57;99427.48;1911852;101;25423;-81
2022/06/20 04:38:35;;;;;;;16.27;2.10;;;;;;;24.46;50.60;99451.13;1912234;101;25435;-81
2022/06/20 04:42:22;;;;;;;8.83;1.77;;;;;;;24.48;50.61;99476.39;1861499;104;26636;-81
2022/06/20 04:47:05;;;;;;;13.25;2.85;;;;;;;24.69;50.47;99483.33;1847071;105;25912;-81
2022/06/20 05:05:11;;;;;;;;;;;;;;;;;;;;;
2022/06/20 05:09:14;;;;;;;7.22;1.80;;;;;;;;;;1690521;113;25932;-84
2022/06/20 05:13:14;;;;;;;5.53;1.67;;;;;;;25.00;49.48;99472.48;;;;
2022/06/20 05:18:52;;;;;;;13.22;2.05;;;;;;;25.00;49.54;99489.81;;;;
2022/06/20 05:22:56;;;;;;;;;;;;;;;;;;;;;
2022/06/20 05:26:57;;;;;;;;;;;;;;;;;;;;;
2022/06/20 05:37:25;;;;;;;7.15;1.77;;;;;;;25.22;49.49;99521.65;1686123;115;25991;-82
2022/06/20 06:15:05;;;;;;;13.32;1.72;;;;;;;25.11;49.28;99486.19;1527798;124;26121;-81
2022/06/20 06:28:39;;;;;;;16.07;2.40;;;;;;;25.12;49.38;99426.56;1556690;123;26650;-82
2022/06/20 06:37:12;;;;;;;8.68;2.37;;;;;;;24.74;49.80;99397.36;1692093;114;26083;-79
2022/06/20 06:40:57;;;;;;;8.18;3.27;;;;;;;24.56;50.31;99400.06;1686632;114;26112;-83
2022/06/20 06:45:01;;;;;;;;;;;;;;;;;;;;;
2022/06/20 06:53:49;;;;;;;9.70;1.95;;;;;;;25.26;50.30;99442.33;1670814;114;26026;-80
2022/06/20 06:57:40;;;;;;;14.25;2.42;;;;;;;25.52;49.80;99451.17;1682619;115;26082;-78
2022/06/20 07:01:30;;;;;;;7.87;2.62;;;;;;;25.85;49.15;99408.94;1615612;108;26100;-78
2022/06/20 07:05:34;;;;;;;;;;;;;;;;;;;;;
2022/06/20 07:13:57;;;;;;;;;;;;;;;;;;;;;
2022/06/20 07:22:31;;;;;;;8.97;2.20;;;;;;;25.17;50.78;99500.52;1627924;119;25933;-77
2022/06/20 07:26:00;;;;;;;9.00;2.45;;;;;;;25.52;50.79;99499.69;1608698;120;26348;-75
2022/06/20 07:29:53;;;;;;;8.08;2.37;;;;;;;25.67;50.61;99485.52;1602035;119;25992;-75
2022/06/20 07:37:52;;;;;;;;;;;;;;;26.19;50.17;99472.07;1631270;116;26214;-74
2022/06/20 07:42:03;;;;;;;15.65;2.83;;;;;;;26.32;49.78;99484.25;1717872;110;26111;-74
2022/06/20 07:50:05;;;;;;;15.38;3.80;;;;;;;26.63;49.41;99487.45;1652199;117;25907;-77
2022/06/20 08:07:17;;;;;;;8.43;3.25;;;;;;;27.68;47.53;99421.45;1565822;122;25989;-77
2022/06/20 08:16:51;;;;;;;8.45;2.50;;;;;;;27.45;47.11;99369.81;1587977;123;26099;-78
2022/06/20 08:20:39;;;;;;;4.67;2.47;;;;;;;28.16;46.71;99351.47;1581517;124;25799;-79
2022/06/20 08:54:07;;;;;;;9.75;2.45;;;;;;;28.93;42.96;99253.31;1505745;128;26096;-77
2022/06/20 08:58:23;;;;;;;;;;;;;;;;;;;;;
2022/06/20 09:07:21;;;;;;;9.75;3.02;;;;;;;29.77;41.65;99276.85;1567213;123;25961;-77
2022/06/20 09:11:38;;;;;;;7.67;2.05;;;;;;;30.44;42.07;99294.30;1579326;123;26009;-79
2022/06/20 09:15:43;;;;;;;8.20;2.70;;;;;;;31.39;41.09;99289.16;1570847;120;26097;-77
2022/06/20 09:19:29;;;;;;;20.48;2.92;;;;;;;32.19;40.26;99275.89;1582949;123;25934;-78
2022/06/20 09:24:31;;;;;;;;;;;;;;;;;;;;;
2022/06/20 09:28:32;;;;;;;;;;;;;;;;;;;;;
2022/06/20 09:52:38;;;;;;;;;;;;;;;;;;;;;
2022/06/20 09:57:07;;;;;;;20.05;3.45;;;;;;;33.48;36.06;99282.34;1594081;123;35059;-79
2022/06/20 10:06:47;;;;;;;;;;;;;;;;;;;;;
2022/06/20 10:10:50;;;;;;;16.82;4.08;;;;;;;33.86;36.18;99295.17;1574601;122;25996;-83
2022/06/20 10:15:22;;;;;;;12.73;3.77;;;;;;;33.95;36.07;99302.42;1557110;125;25917;-82
2022/06/20 10:20:29;;;;;;;10.75;3.30;;;;;;;33.85;36.29;99300.20;1522726;128;25975;-82
2022/06/20 10:24:07;;;;;;;15.50;4.17;;;;;;;33.99;36.47;99289.00;1555693;125;25978;-83
2022/06/20 10:28:17;;;;;;;9.90;3.17;;;;;;;34.13;36.35;99280.16;1556703;126;25984;-79
2022/06/20 10:32:36;;;;;;;9.63;2.70;;;;;;;34.22;36.51;99276.58;1555774;125;25895;-82
2022/06/20 10:36:37;;;;;;;;;;;;;;;;;;;;;
2022/06/20 10:40:37;;;;;;;15.15;3.83;;;;;;;34.38;36.57;99289.55;1555268;126;25938;-78
2022/06/20 10:44:58;;;;;;;9.38;3.17;;;;;;;34.39;36.61;99285.84;1559194;125;26100;-74
2022/06/20 10:53:30;;;;;;;17.25;3.02;;;;;;;34.46;36.46;99267.55;1584778;123;25958;-81
2022/06/20 10:57:03;;;;;;;8.98;2.80;;;;;;;34.44;36.41;99264.63;1595891;119;25866;-76
2022/06/20 11:18:26;;;;;;;8.25;2.67;;;;;;;33.73;36.11;99353.53;1681532;115;25892;-81
2022/06/20 11:27:33;;;;;;;12.28;2.75;;;;;;;31.77;37.29;99398.86;1616577;121;25946;-82
2022/06/20 11:31:27;;;;;;;8.35;2.47;;;;;;;31.23;38.04;99413.84;1615362;122;25805;-86
2022/06/20 11:35:46;;;;;;;;;;;;;;;;;;;;;
2022/06/20 11:39:59;;;;;;;3.62;2.27;;;;;;;30.03;39.49;99417.34;1618818;120;25796;-80
2022/06/20 11:44:13;;;;;;;5.47;2.67;;;;;;;29.50;40.35;99384.88;1595551;122;26186;-86
2022/06/20 11:48:26;;;;;;;5.55;2.12;;;;;;;29.11;41.21;99383.53;1599360;122;26039;-76
2022/06/20 11:52:42;;;;;;;4.42;1.95;;;;;;;28.79;41.76;99370.97;1614841;121;26038;-83
2022/06/20 11:56:48;;;;;;;3.85;3.00;;;;;;;28.57;42.45;99364.83;1599205;122;25895;-76
2022/06/20 12:00:57;;;;;;;;;;;;;;;;;;;;;
2022/06/20 12:05:01;;;;;;;5.12;2.00;;;;;;;27.90;44.01;99365.20;1612963;122;25925;-76
2022/06/20 12:08:43;;;;;;;3.58;1.80;;;;;;;27.48;44.66;99406.61;1629461;120;26717;-76
2022/06/20 12:36:42;;;;;;;;;;;;;;;;;;;;;
